Time,TemperatureF,DewpointF,PressureIn,WindDirection,WindDirectionDegrees,WindSpeedMPH,WindSpeedGustMPH,Humidity,HourlyPrecipIn,Conditions,Clouds,dailyrainin,SoftwareType,DateUTC
2013-02-19 00:00:00,49.9,33.5,29.93,South,178,11.0,22.0,53,0.00,,SKC,0.00,VWS V13.00,2013-02-19 06:00:00,
2013-02-19 00:05:00,49.8,34.3,29.94,SSE,161,10.0,20.0,55,0.00,,SKC,0.00,VWS V13.00,2013-02-19 06:05:00,
2013-02-19 00:10:00,49.4,35.7,29.95,SSW,203,5.0,20.0,59,0.01,,SKC,0.01,VWS V13.00,2013-02-19 06:10:00,
2013-02-19 00:15:00,48.8,36.0,29.96,South,190,9.0,20.0,61,0.02,,SKC,0.02,VWS V13.00,2013-02-19 06:15:00,
2013-02-19 00:20:00,47.9,37.5,29.96,South,186,5.0,20.0,67,0.04,,SKC,0.04,VWS V13.00,2013-02-19 06:20:00,
2013-02-19 00:25:00,47.0,38.5,29.96,South,183,4.0,20.0,72,0.05,,SKC,0.05,VWS V13.00,2013-02-19 06:25:00,
2013-02-19 00:30:00,46.1,38.6,29.95,SSW,207,5.0,20.0,75,0.07,,SKC,0.07,VWS V13.00,2013-02-19 06:30:00,
2013-02-19 00:35:00,45.7,38.9,29.95,South,177,6.0,9.0,77,0.08,,SKC,0.08,VWS V13.00,2013-02-19 06:35:00,
2013-02-19 00:40:00,45.4,39.3,29.96,SW,218,2.0,9.0,79,0.10,,SKC,0.10,VWS V13.00,2013-02-19 06:40:00,
2013-02-19 00:45:00,45.1,39.6,29.96,SSW,195,5.0,9.0,81,0.11,,SKC,0.12,VWS V13.00,2013-02-19 06:45:00,
2013-02-19 00:50:00,44.8,39.7,29.96,SSW,202,0.0,9.0,82,0.14,,SKC,0.14,VWS V13.00,2013-02-19 06:50:00,
2013-02-19 00:55:00,44.5,40.0,29.96,SSW,210,4.0,9.0,84,0.17,,SKC,0.17,VWS V13.00,2013-02-19 06:55:00,
2013-02-19 01:00:00,44.3,40.1,29.97,West,279,3.0,9.0,85,0.19,,SKC,0.19,VWS V13.00,2013-02-19 07:00:00,
2013-02-19 01:05:00,43.8,40.8,29.99,NW,310,7.0,9.0,89,0.20,,SKC,0.20,VWS V13.00,2013-02-19 07:05:00,
2013-02-19 01:10:00,43.6,40.9,30.01,WNW,293,11.0,13.0,90,0.22,,SKC,0.22,VWS V13.00,2013-02-19 07:10:00,
2013-02-19 01:15:00,43.4,41.0,30.01,NW,309,7.0,13.0,91,0.24,,SKC,0.24,VWS V13.00,2013-02-19 07:15:00,
2013-02-19 01:20:00,43.3,40.8,30.01,NW,307,6.0,13.0,91,0.24,,SKC,0.24,VWS V13.00,2013-02-19 07:20:00,
2013-02-19 01:25:00,43.2,41.0,30.01,NW,326,8.0,13.0,92,0.25,,SKC,0.25,VWS V13.00,2013-02-19 07:25:00,
2013-02-19 01:30:00,43.2,41.3,30.03,WNW,291,8.0,13.0,93,0.25,,SKC,0.25,VWS V13.00,2013-02-19 07:30:00,
2013-02-19 01:35:00,43.2,41.6,30.03,NW,309,5.0,9.0,94,0.19,,SKC,0.26,VWS V13.00,2013-02-19 07:35:00,
2013-02-19 01:40:00,43.2,41.6,30.02,NNW,342,5.0,10.0,94,0.20,,SKC,0.27,VWS V13.00,2013-02-19 07:40:00,
2013-02-19 01:45:00,43.2,41.6,30.02,NW,319,4.0,10.0,94,0.21,,SKC,0.28,VWS V13.00,2013-02-19 07:45:00,
2013-02-19 01:50:00,43.1,41.5,30.02,NNW,327,5.0,10.0,94,0.22,,SKC,0.29,VWS V13.00,2013-02-19 07:50:00,
2013-02-19 01:55:00,43.1,41.8,30.02,NW,321,2.0,10.0,95,0.23,,SKC,0.30,VWS V13.00,2013-02-19 07:55:00,
2013-02-19 02:00:00,43.2,41.9,30.02,NW,321,0.0,10.0,95,0.24,,SKC,0.31,VWS V13.00,2013-02-19 08:00:00,
2013-02-19 02:05:00,43.2,41.9,30.02,NW,304,0.0,4.0,95,0.12,,SKC,0.31,VWS V13.00,2013-02-19 08:05:00,
2013-02-19 02:10:00,43.2,41.9,30.03,NW,304,1.0,4.0,95,0.12,,SKC,0.31,VWS V13.00,2013-02-19 08:10:00,
2013-02-19 02:15:00,43.2,41.9,30.02,WNW,283,0.0,4.0,95,0.13,,SKC,0.32,VWS V13.00,2013-02-19 08:15:00,
2013-02-19 02:20:00,43.2,41.9,30.01,SSE,165,1.0,4.0,95,0.15,,SKC,0.34,VWS V13.00,2013-02-19 08:20:00,
2013-02-19 02:25:00,43.1,41.8,30.00,SSE,165,3.0,4.0,95,0.16,,SKC,0.35,VWS V13.00,2013-02-19 08:25:00,
2013-02-19 02:30:00,43.1,41.8,30.00,SE,138,5.0,5.0,95,0.16,,SKC,0.35,VWS V13.00,2013-02-19 08:30:00,
2013-02-19 02:35:00,43.1,42.0,30.00,SSE,158,2.0,4.0,96,0.10,,SKC,0.35,VWS V13.00,2013-02-19 08:35:00,
2013-02-19 02:40:00,43.1,42.0,29.99,SSE,161,4.0,6.0,96,0.10,,SKC,0.35,VWS V13.00,2013-02-19 08:40:00,
2013-02-19 02:45:00,43.1,42.0,29.98,SSE,161,1.0,7.0,96,0.11,,SKC,0.36,VWS V13.00,2013-02-19 08:45:00,
2013-02-19 02:50:00,43.0,41.9,29.98,South,172,2.0,7.0,96,0.11,,SKC,0.36,VWS V13.00,2013-02-19 08:50:00,
2013-02-19 02:55:00,43.0,41.9,29.98,South,169,2.0,7.0,96,0.11,,SKC,0.36,VWS V13.00,2013-02-19 08:55:00,
2013-02-19 03:00:00,43.1,42.0,29.97,South,180,7.0,8.0,96,0.11,,SKC,0.36,VWS V13.00,2013-02-19 09:00:00,
2013-02-19 03:05:00,43.2,42.1,29.96,South,174,8.0,10.0,96,0.05,,SKC,0.36,VWS V13.00,2013-02-19 09:05:00,
2013-02-19 03:10:00,43.3,42.2,29.96,SSE,167,6.0,10.0,96,0.05,,SKC,0.36,VWS V13.00,2013-02-19 09:10:00,
2013-02-19 03:15:00,43.4,42.3,29.95,SE,146,7.0,10.0,96,0.05,,SKC,0.36,VWS V13.00,2013-02-19 09:15:00,
2013-02-19 03:20:00,43.4,42.3,29.95,South,183,10.0,10.0,96,0.05,,SKC,0.36,VWS V13.00,2013-02-19 09:20:00,
2013-02-19 03:25:00,43.5,42.4,29.95,South,171,9.0,14.0,96,0.05,,SKC,0.36,VWS V13.00,2013-02-19 09:25:00,
2013-02-19 03:30:00,43.6,42.5,29.95,SSE,151,7.0,14.0,96,0.05,,SKC,0.36,VWS V13.00,2013-02-19 09:30:00,
2013-02-19 03:35:00,43.7,42.6,29.95,SSE,167,6.0,10.0,96,0.02,,SKC,0.37,VWS V13.00,2013-02-19 09:35:00,
2013-02-19 03:40:00,43.8,42.7,29.95,South,177,7.0,11.0,96,0.02,,SKC,0.37,VWS V13.00,2013-02-19 09:40:00,
2013-02-19 03:45:00,43.9,42.8,29.95,SSE,166,7.0,12.0,96,0.03,,SKC,0.38,VWS V13.00,2013-02-19 09:45:00,
2013-02-19 03:50:00,43.9,42.8,29.94,SSE,161,11.0,12.0,96,0.03,,SKC,0.38,VWS V13.00,2013-02-19 09:50:00,
2013-02-19 03:55:00,44.0,42.9,29.94,SSE,165,9.0,14.0,96,0.04,,SKC,0.39,VWS V13.00,2013-02-19 09:55:00,
2013-02-19 04:00:00,44.0,42.9,29.94,SSE,156,8.0,14.0,96,0.04,,SKC,0.39,VWS V13.00,2013-02-19 10:00:00,
2013-02-19 04:05:00,43.9,42.8,29.94,SSE,166,8.0,13.0,96,0.03,,SKC,0.39,VWS V13.00,2013-02-19 10:05:00,
2013-02-19 04:10:00,43.9,42.8,29.92,South,184,10.0,16.0,96,0.03,,SKC,0.39,VWS V13.00,2013-02-19 10:10:00,
2013-02-19 04:15:00,43.9,42.8,29.92,South,182,9.0,16.0,96,0.03,,SKC,0.39,VWS V13.00,2013-02-19 10:15:00,
2013-02-19 04:20:00,44.0,42.9,29.92,South,173,4.0,16.0,96,0.03,,SKC,0.39,VWS V13.00,2013-02-19 10:20:00,
2013-02-19 04:25:00,44.0,42.9,29.92,SSE,163,8.0,16.0,96,0.03,,SKC,0.39,VWS V13.00,2013-02-19 10:25:00,
2013-02-19 04:30:00,44.1,43.0,29.93,SSW,206,6.0,16.0,96,0.03,,SKC,0.39,VWS V13.00,2013-02-19 10:30:00,
2013-02-19 04:35:00,44.2,43.1,29.95,South,190,6.0,8.0,96,0.03,,SKC,0.39,VWS V13.00,2013-02-19 10:35:00,
2013-02-19 04:40:00,44.3,43.2,29.95,South,186,6.0,8.0,96,0.03,,SKC,0.39,VWS V13.00,2013-02-19 10:40:00,
2013-02-19 04:45:00,44.3,43.2,29.95,SSW,198,6.0,9.0,96,0.03,,SKC,0.39,VWS V13.00,2013-02-19 10:45:00,
2013-02-19 04:50:00,44.3,43.2,29.95,South,184,2.0,9.0,96,0.03,,SKC,0.39,VWS V13.00,2013-02-19 10:50:00,
2013-02-19 04:55:00,44.3,43.2,29.95,South,177,7.0,12.0,96,0.03,,SKC,0.39,VWS V13.00,2013-02-19 10:55:00,
2013-02-19 05:00:00,44.3,43.2,29.94,South,170,3.0,12.0,96,0.03,,SKC,0.39,VWS V13.00,2013-02-19 11:00:00,
2013-02-19 05:05:00,44.2,43.1,29.94,SE,144,7.0,9.0,96,0.00,,SKC,0.39,VWS V13.00,2013-02-19 11:05:00,
2013-02-19 05:10:00,44.2,43.1,29.94,South,174,6.0,9.0,96,0.00,,SKC,0.39,VWS V13.00,2013-02-19 11:10:00,
2013-02-19 05:15:00,44.2,43.1,29.94,SSW,192,4.0,9.0,96,0.00,,SKC,0.39,VWS V13.00,2013-02-19 11:15:00,
2013-02-19 05:20:00,44.3,43.2,29.95,SSW,196,5.0,9.0,96,0.00,,SKC,0.39,VWS V13.00,2013-02-19 11:20:00,
2013-02-19 05:25:00,44.2,43.1,29.95,South,186,7.0,10.0,96,0.00,,SKC,0.39,VWS V13.00,2013-02-19 11:25:00,
2013-02-19 05:30:00,44.2,43.4,29.95,South,189,6.0,11.0,97,0.00,,SKC,0.39,VWS V13.00,2013-02-19 11:30:00,
2013-02-19 05:35:00,44.2,43.4,29.95,South,186,5.0,9.0,97,0.00,,SKC,0.39,VWS V13.00,2013-02-19 11:35:00,
2013-02-19 05:40:00,44.3,43.5,29.95,South,178,6.0,11.0,97,0.00,,SKC,0.39,VWS V13.00,2013-02-19 11:40:00,
2013-02-19 05:45:00,44.3,43.5,29.96,SSW,213,6.0,11.0,97,0.00,,SKC,0.39,VWS V13.00,2013-02-19 11:45:00,
2013-02-19 05:50:00,44.3,43.5,29.97,SSW,205,7.0,11.0,97,0.00,,SKC,0.39,VWS V13.00,2013-02-19 11:50:00,
2013-02-19 05:55:00,44.3,43.5,29.97,South,186,7.0,11.0,97,0.00,,SKC,0.39,VWS V13.00,2013-02-19 11:55:00,
2013-02-19 06:00:00,44.3,43.5,29.96,SW,217,10.0,11.0,97,0.00,,SKC,0.39,VWS V13.00,2013-02-19 12:00:00,
2013-02-19 06:05:00,44.3,43.5,29.96,South,184,5.0,6.0,97,0.00,,SKC,0.39,VWS V13.00,2013-02-19 12:05:00,
2013-02-19 06:10:00,44.3,43.5,29.97,SW,225,4.0,8.0,97,0.00,,SKC,0.39,VWS V13.00,2013-02-19 12:10:00,
2013-02-19 06:15:00,44.3,43.5,29.97,SW,219,4.0,9.0,97,0.00,,SKC,0.39,VWS V13.00,2013-02-19 12:15:00,
2013-02-19 06:20:00,44.4,43.6,29.97,SSW,213,1.0,9.0,97,0.00,,SKC,0.39,VWS V13.00,2013-02-19 12:20:00,
2013-02-19 06:25:00,44.4,43.6,29.97,South,186,4.0,9.0,97,0.00,,SKC,0.39,VWS V13.00,2013-02-19 12:25:00,
2013-02-19 06:30:00,44.4,43.6,29.97,SSW,198,2.0,9.0,97,0.00,,SKC,0.39,VWS V13.00,2013-02-19 12:30:00,
2013-02-19 06:35:00,44.5,43.7,29.98,SW,226,2.0,4.0,97,0.00,,SKC,0.39,VWS V13.00,2013-02-19 12:35:00,
2013-02-19 06:40:00,44.5,43.7,29.98,SW,224,2.0,6.0,97,0.00,,SKC,0.39,VWS V13.00,2013-02-19 12:40:00,
2013-02-19 06:45:00,44.6,43.8,29.98,SW,226,4.0,6.0,97,0.00,,SKC,0.39,VWS V13.00,2013-02-19 12:45:00,
2013-02-19 06:50:00,44.6,43.8,29.99,WSW,249,0.0,6.0,97,0.00,,SKC,0.39,VWS V13.00,2013-02-19 12:50:00,
2013-02-19 06:55:00,44.7,43.9,29.99,NW,309,6.0,6.0,97,0.00,,SKC,0.39,VWS V13.00,2013-02-19 12:55:00,
2013-02-19 07:00:00,44.8,44.0,29.99,WNW,288,1.0,6.0,97,0.00,,SKC,0.39,VWS V13.00,2013-02-19 13:00:00,
2013-02-19 07:05:00,44.9,44.1,30.00,West,271,2.0,4.0,97,0.00,,SKC,0.39,VWS V13.00,2013-02-19 13:05:00,
2013-02-19 07:10:00,45.0,44.2,30.00,WNW,290,1.0,4.0,97,0.00,,SKC,0.39,VWS V13.00,2013-02-19 13:10:00,
2013-02-19 07:15:00,45.1,44.6,30.00,West,277,2.0,6.0,98,0.00,,SKC,0.39,VWS V13.00,2013-02-19 13:15:00,
2013-02-19 07:20:00,45.2,44.7,30.01,West,281,2.0,6.0,98,0.00,,SKC,0.39,VWS V13.00,2013-02-19 13:20:00,
2013-02-19 07:25:00,45.2,44.7,30.01,WNW,286,4.0,6.0,98,0.00,,SKC,0.39,VWS V13.00,2013-02-19 13:25:00,
2013-02-19 07:30:00,45.3,44.8,30.01,WNW,284,3.0,6.0,98,0.00,,SKC,0.39,VWS V13.00,2013-02-19 13:30:00,
2013-02-19 07:35:00,45.4,44.9,30.02,WNW,284,4.0,5.0,98,0.00,,SKC,0.39,VWS V13.00,2013-02-19 13:35:00,
2013-02-19 07:40:00,45.4,44.9,30.02,West,267,5.0,6.0,98,0.00,,SKC,0.39,VWS V13.00,2013-02-19 13:40:00,
2013-02-19 07:45:00,45.6,45.1,30.03,West,263,3.0,7.0,98,0.00,,SKC,0.39,VWS V13.00,2013-02-19 13:45:00,
2013-02-19 07:50:00,45.9,45.4,30.03,WNW,283,6.0,8.0,98,0.01,,SKC,0.40,VWS V13.00,2013-02-19 13:50:00,
2013-02-19 07:55:00,46.2,45.7,30.03,WNW,302,6.0,12.0,98,0.01,,SKC,0.40,VWS V13.00,2013-02-19 13:55:00,
2013-02-19 08:00:00,46.4,45.9,30.03,NW,311,9.0,12.0,98,0.01,,SKC,0.40,VWS V13.00,2013-02-19 14:00:00,
2013-02-19 08:05:00,46.5,46.0,30.03,NW,305,11.0,13.0,98,0.01,,SKC,0.40,VWS V13.00,2013-02-19 14:05:00,
2013-02-19 08:10:00,46.5,46.0,30.03,WNW,300,7.0,16.0,98,0.01,,SKC,0.40,VWS V13.00,2013-02-19 14:10:00,
2013-02-19 08:15:00,46.4,45.9,30.04,NW,312,11.0,16.0,98,0.01,,SKC,0.40,VWS V13.00,2013-02-19 14:15:00,
2013-02-19 08:20:00,46.4,45.9,30.04,NW,304,9.0,16.0,98,0.01,,SKC,0.40,VWS V13.00,2013-02-19 14:20:00,
2013-02-19 08:25:00,46.3,45.5,30.04,NW,319,10.0,16.0,97,0.01,,SKC,0.40,VWS V13.00,2013-02-19 14:25:00,
2013-02-19 08:30:00,46.2,45.1,30.05,NNW,329,9.0,16.0,96,0.01,,SKC,0.40,VWS V13.00,2013-02-19 14:30:00,
2013-02-19 08:35:00,46.2,44.8,30.05,WNW,290,8.0,13.0,95,0.01,,SKC,0.40,VWS V13.00,2013-02-19 14:35:00,
2013-02-19 08:40:00,46.3,45.0,30.05,WNW,293,11.0,15.0,95,0.01,,SKC,0.40,VWS V13.00,2013-02-19 14:40:00,
2013-02-19 08:45:00,46.4,44.8,30.05,WNW,298,8.0,18.0,94,0.01,,SKC,0.40,VWS V13.00,2013-02-19 14:45:00,
2013-02-19 08:50:00,46.4,44.8,30.06,WNW,299,16.0,18.0,94,0.01,,SKC,0.40,VWS V13.00,2013-02-19 14:50:00,
2013-02-19 08:55:00,45.8,43.9,30.06,NW,313,13.0,18.0,93,0.01,,SKC,0.40,VWS V13.00,2013-02-19 14:55:00,
2013-02-19 09:00:00,45.5,43.6,30.07,West,280,8.0,18.0,93,0.01,,SKC,0.40,VWS V13.00,2013-02-19 15:00:00,
2013-02-19 09:05:00,45.5,43.3,30.06,NW,319,13.0,18.0,92,0.00,,SKC,0.40,VWS V13.00,2013-02-19 15:05:00,
2013-02-19 09:10:00,45.1,42.1,30.07,North,350,7.0,20.0,89,0.00,,SKC,0.40,VWS V13.00,2013-02-19 15:10:00,
2013-02-19 09:15:00,45.2,42.2,30.07,WNW,302,14.0,20.0,89,0.00,,SKC,0.40,VWS V13.00,2013-02-19 15:15:00,
2013-02-19 09:20:00,45.4,41.5,30.07,NW,323,13.0,20.0,86,0.00,,SKC,0.40,VWS V13.00,2013-02-19 15:20:00,
2013-02-19 09:25:00,45.8,41.9,30.07,WNW,289,12.0,20.0,86,0.00,,SKC,0.40,VWS V13.00,2013-02-19 15:25:00,
2013-02-19 09:29:00,45.5,41.0,30.07,NNW,333,7.0,20.0,84,0.00,,SKC,0.40,VWS V13.00,2013-02-19 15:29:00,
2013-02-19 09:34:00,45.2,41.0,30.08,NNW,328,8.0,11.0,85,0.00,,SKC,0.40,VWS V13.00,2013-02-19 15:34:00,
2013-02-19 09:39:00,45.2,41.0,30.08,North,360,6.0,14.0,85,0.00,,SKC,0.40,VWS V13.00,2013-02-19 15:39:00,
2013-02-19 09:44:00,45.5,40.3,30.08,NW,306,7.0,14.0,82,0.00,,SKC,0.40,VWS V13.00,2013-02-19 15:44:00,
2013-02-19 09:49:00,45.9,41.0,30.08,WNW,290,7.0,14.0,83,0.00,,SKC,0.40,VWS V13.00,2013-02-19 15:49:00,
2013-02-19 09:54:00,46.3,40.2,30.08,WNW,302,8.0,15.0,79,0.00,,SKC,0.40,VWS V13.00,2013-02-19 15:54:00,
2013-02-19 09:59:00,46.5,40.3,30.08,NW,316,13.0,15.0,79,0.00,,SKC,0.40,VWS V13.00,2013-02-19 15:59:00,
2013-02-19 10:04:00,46.3,39.8,30.08,NNW,347,9.0,13.0,78,0.00,,SKC,0.40,VWS V13.00,2013-02-19 16:04:00,
2013-02-19 10:09:00,46.7,40.5,30.08,WNW,302,11.0,16.0,79,0.00,,SKC,0.40,VWS V13.00,2013-02-19 16:09:00,
2013-02-19 10:14:00,46.6,39.5,30.09,WNW,299,13.0,20.0,76,0.00,,SKC,0.40,VWS V13.00,2013-02-19 16:14:00,
2013-02-19 10:19:00,47.0,40.2,30.09,NW,323,10.0,20.0,77,0.00,,SKC,0.40,VWS V13.00,2013-02-19 16:19:00,
2013-02-19 10:24:00,47.2,39.7,30.09,NNW,331,7.0,20.0,75,0.00,,SKC,0.40,VWS V13.00,2013-02-19 16:24:00,
2013-02-19 10:29:00,47.9,40.7,30.09,WNW,302,9.0,20.0,76,0.00,,SKC,0.40,VWS V13.00,2013-02-19 16:29:00,
2013-02-19 10:34:00,48.1,39.9,30.09,NW,321,8.0,16.0,73,0.00,,SKC,0.40,VWS V13.00,2013-02-19 16:34:00,
2013-02-19 10:39:00,48.0,40.8,30.09,WNW,303,8.0,16.0,76,0.00,,SKC,0.40,VWS V13.00,2013-02-19 16:39:00,
2013-02-19 10:44:00,47.9,39.7,30.09,WNW,297,12.0,19.0,73,0.00,,SKC,0.40,VWS V13.00,2013-02-19 16:44:00,
2013-02-19 10:49:00,48.0,39.4,30.09,NW,313,10.0,20.0,72,0.00,,SKC,0.40,VWS V13.00,2013-02-19 16:49:00,
2013-02-19 10:54:00,48.3,39.0,30.09,NW,309,15.0,20.0,70,0.00,,SKC,0.40,VWS V13.00,2013-02-19 16:54:00,
2013-02-19 10:59:00,48.3,39.0,30.09,WNW,284,8.0,20.0,70,0.00,,SKC,0.40,VWS V13.00,2013-02-19 16:59:00,
2013-02-19 11:04:00,48.2,37.8,30.09,WNW,294,13.0,21.0,67,0.00,,SKC,0.40,VWS V13.00,2013-02-19 17:04:00,
2013-02-19 11:09:00,48.5,37.7,30.09,NW,304,13.0,21.0,66,0.00,,SKC,0.40,VWS V13.00,2013-02-19 17:09:00,
2013-02-19 11:14:00,48.6,37.4,30.09,WNW,290,13.0,21.0,65,0.00,,SKC,0.40,VWS V13.00,2013-02-19 17:14:00,
2013-02-19 11:19:00,49.0,38.2,30.09,NW,306,8.0,21.0,66,0.00,,SKC,0.40,VWS V13.00,2013-02-19 17:19:00,
2013-02-19 11:24:00,49.2,36.3,30.09,NW,326,11.0,21.0,61,0.00,,SKC,0.40,VWS V13.00,2013-02-19 17:24:00,
2013-02-19 11:29:00,49.1,36.7,30.09,NW,323,9.0,21.0,62,0.00,,SKC,0.40,VWS V13.00,2013-02-19 17:29:00,
2013-02-19 11:34:00,49.7,35.1,30.09,NW,309,12.0,20.0,57,0.00,,SKC,0.40,VWS V13.00,2013-02-19 17:34:00,
2013-02-19 11:39:00,49.8,34.3,30.08,NW,313,8.0,20.0,55,0.00,,SKC,0.40,VWS V13.00,2013-02-19 17:39:00,
2013-02-19 11:44:00,50.0,34.5,30.08,NW,325,9.0,21.0,55,0.00,,SKC,0.40,VWS V13.00,2013-02-19 17:44:00,
2013-02-19 11:49:00,50.5,34.5,30.08,WNW,292,9.0,21.0,54,0.00,,SKC,0.40,VWS V13.00,2013-02-19 17:49:00,
2013-02-19 11:54:00,50.1,34.6,30.08,NW,308,15.0,23.0,55,0.00,,SKC,0.40,VWS V13.00,2013-02-19 17:54:00,
2013-02-19 11:59:00,50.4,36.2,30.08,NNW,334,8.0,23.0,58,0.00,,SKC,0.40,VWS V13.00,2013-02-19 17:59:00,
2013-02-19 12:04:00,50.2,36.0,30.09,NW,324,9.0,15.0,58,0.00,,SKC,0.40,VWS V13.00,2013-02-19 18:04:00,
2013-02-19 12:09:00,50.3,36.1,30.09,NW,306,10.0,18.0,58,0.00,,SKC,0.40,VWS V13.00,2013-02-19 18:09:00,
2013-02-19 12:14:00,50.5,35.8,30.09,NNW,342,12.0,18.0,57,0.00,,SKC,0.40,VWS V13.00,2013-02-19 18:14:00,
2013-02-19 12:19:00,50.9,37.1,30.09,NW,314,12.0,18.0,59,0.00,,SKC,0.40,VWS V13.00,2013-02-19 18:19:00,
2013-02-19 12:24:00,51.5,36.3,30.08,NNW,339,12.0,18.0,56,0.00,,SKC,0.40,VWS V13.00,2013-02-19 18:24:00,
2013-02-19 12:29:00,51.3,35.2,30.08,NNW,334,9.0,18.0,54,0.00,,SKC,0.40,VWS V13.00,2013-02-19 18:29:00,
2013-02-19 12:34:00,51.5,35.4,30.08,NW,312,10.0,16.0,54,0.00,,SKC,0.40,VWS V13.00,2013-02-19 18:34:00,
2013-02-19 12:39:00,52.2,35.6,30.08,NW,320,11.0,19.0,53,0.00,,SKC,0.40,VWS V13.00,2013-02-19 18:39:00,
2013-02-19 12:44:00,51.8,35.7,30.08,WNW,297,13.0,19.0,54,0.00,,SKC,0.40,VWS V13.00,2013-02-19 18:44:00,
2013-02-19 12:49:00,52.0,34.5,30.07,NW,315,13.0,19.0,51,0.00,,SKC,0.40,VWS V13.00,2013-02-19 18:49:00,
2013-02-19 12:54:00,52.3,33.2,30.07,NW,312,12.0,20.0,48,0.00,,SKC,0.40,VWS V13.00,2013-02-19 18:54:00,
2013-02-19 12:59:00,52.3,31.6,30.07,NW,306,7.0,21.0,45,0.00,,SKC,0.40,VWS V13.00,2013-02-19 18:59:00,
2013-02-19 13:04:00,52.4,33.8,30.07,WNW,301,10.0,18.0,49,0.00,,SKC,0.40,VWS V13.00,2013-02-19 19:04:00,
2013-02-19 13:09:00,52.8,31.5,30.07,NNW,334,11.0,23.0,44,0.00,,SKC,0.40,VWS V13.00,2013-02-19 19:09:00,
2013-02-19 13:14:00,53.3,30.2,30.07,WNW,292,15.0,23.0,41,0.00,,SKC,0.40,VWS V13.00,2013-02-19 19:14:00,
2013-02-19 13:19:00,52.8,25.9,30.07,NW,323,18.0,27.0,35,0.00,,SKC,0.40,VWS V13.00,2013-02-19 19:19:00,
2013-02-19 13:24:00,53.0,25.4,30.07,NW,324,13.0,27.0,34,0.00,,SKC,0.40,VWS V13.00,2013-02-19 19:24:00,
2013-02-19 13:29:00,52.6,27.1,30.07,NW,311,9.0,27.0,37,0.00,,SKC,0.40,VWS V13.00,2013-02-19 19:29:00,
2013-02-19 13:34:00,52.6,25.8,30.07,NNW,348,10.0,21.0,35,0.00,,SKC,0.40,VWS V13.00,2013-02-19 19:34:00,
2013-02-19 13:39:00,52.0,26.5,30.08,NW,320,13.0,23.0,37,0.00,,SKC,0.40,VWS V13.00,2013-02-19 19:39:00,
2013-02-19 13:44:00,52.0,26.5,30.08,NW,319,12.0,23.0,37,0.00,,SKC,0.40,VWS V13.00,2013-02-19 19:44:00,
2013-02-19 13:49:00,52.3,26.8,30.08,NNW,332,21.0,23.0,37,0.00,,SKC,0.40,VWS V13.00,2013-02-19 19:49:00,
2013-02-19 13:54:00,51.9,25.1,30.08,NW,309,18.0,25.0,35,0.00,,SKC,0.40,VWS V13.00,2013-02-19 19:54:00,
2013-02-19 13:59:00,51.9,25.8,30.09,NW,311,20.0,25.0,36,0.00,,SKC,0.40,VWS V13.00,2013-02-19 19:59:00,
2013-02-19 14:04:00,52.0,23.8,30.08,NW,315,18.0,27.0,33,0.00,,SKC,0.40,VWS V13.00,2013-02-19 20:04:00,
2013-02-19 14:09:00,52.1,24.6,30.08,NNW,329,12.0,27.0,34,0.00,,SKC,0.40,VWS V13.00,2013-02-19 20:09:00,
2013-02-19 14:14:00,52.6,25.8,30.08,NW,309,22.0,27.0,35,0.00,,SKC,0.40,VWS V13.00,2013-02-19 20:14:00,
2013-02-19 14:19:00,52.1,24.6,30.09,NNW,338,16.0,27.0,34,0.00,,SKC,0.40,VWS V13.00,2013-02-19 20:19:00,
2013-02-19 14:24:00,52.0,26.5,30.09,NW,321,18.0,27.0,37,0.00,,SKC,0.40,VWS V13.00,2013-02-19 20:24:00,
2013-02-19 14:29:00,51.7,26.3,30.09,WNW,287,12.0,27.0,37,0.00,,SKC,0.40,VWS V13.00,2013-02-19 20:29:00,
2013-02-19 14:34:00,51.6,24.9,30.09,NNW,340,13.0,21.0,35,0.00,,SKC,0.40,VWS V13.00,2013-02-19 20:34:00,
2013-02-19 14:39:00,51.5,26.1,30.09,NW,322,13.0,21.0,37,0.00,,SKC,0.40,VWS V13.00,2013-02-19 20:39:00,
2013-02-19 14:44:00,51.5,25.5,30.09,NW,312,12.0,22.0,36,0.00,,SKC,0.40,VWS V13.00,2013-02-19 20:44:00,
2013-02-19 14:49:00,51.6,26.2,30.09,NW,309,16.0,22.0,37,0.00,,SKC,0.40,VWS V13.00,2013-02-19 20:49:00,
2013-02-19 14:54:00,51.6,26.2,30.09,NNW,328,11.0,22.0,37,0.00,,SKC,0.40,VWS V13.00,2013-02-19 20:54:00,
2013-02-19 14:59:00,52.1,25.3,30.09,NW,308,12.0,22.0,35,0.00,,SKC,0.40,VWS V13.00,2013-02-19 20:59:00,
2013-02-19 15:04:00,51.9,23.7,30.09,NNW,342,9.0,20.0,33,0.00,,SKC,0.40,VWS V13.00,2013-02-19 21:04:00,
2013-02-19 15:09:00,51.7,23.5,30.10,NW,322,10.0,20.0,33,0.00,,SKC,0.40,VWS V13.00,2013-02-19 21:09:00,
2013-02-19 15:14:00,51.7,25.0,30.09,North,349,10.0,20.0,35,0.00,,SKC,0.40,VWS V13.00,2013-02-19 21:14:00,
2013-02-19 15:19:00,51.4,24.0,30.10,NNW,331,8.0,20.0,34,0.00,,SKC,0.40,VWS V13.00,2013-02-19 21:19:00,
2013-02-19 15:24:00,51.4,24.7,30.10,WNW,293,8.0,20.0,35,0.00,,SKC,0.40,VWS V13.00,2013-02-19 21:24:00,
2013-02-19 15:29:00,51.3,25.3,30.10,WNW,296,14.0,20.0,36,0.00,,SKC,0.40,VWS V13.00,2013-02-19 21:29:00,
2013-02-19 15:34:00,51.0,25.0,30.10,NW,309,8.0,18.0,36,0.00,,SKC,0.40,VWS V13.00,2013-02-19 21:34:00,
2013-02-19 15:39:00,51.1,25.1,30.11,NNW,328,8.0,18.0,36,0.00,,SKC,0.40,VWS V13.00,2013-02-19 21:39:00,
2013-02-19 15:44:00,51.1,25.8,30.10,NW,311,13.0,19.0,37,0.00,,SKC,0.40,VWS V13.00,2013-02-19 21:44:00,
2013-02-19 15:49:00,50.7,25.4,30.10,NW,309,10.0,23.0,37,0.00,,SKC,0.40,VWS V13.00,2013-02-19 21:49:00,
2013-02-19 15:54:00,50.8,24.8,30.11,WNW,300,9.0,23.0,36,0.00,,SKC,0.40,VWS V13.00,2013-02-19 21:54:00,
2013-02-19 15:59:00,50.9,23.5,30.11,NW,313,12.0,23.0,34,0.00,,SKC,0.40,VWS V13.00,2013-02-19 21:59:00,
2013-02-19 16:04:00,50.4,22.4,30.11,NNW,344,15.0,15.0,33,0.00,,SKC,0.40,VWS V13.00,2013-02-19 22:04:00,
2013-02-19 16:09:00,50.3,22.3,30.11,NW,324,10.0,19.0,33,0.00,,SKC,0.40,VWS V13.00,2013-02-19 22:09:00,
2013-02-19 16:14:00,50.3,23.0,30.11,NW,321,7.0,19.0,34,0.00,,SKC,0.40,VWS V13.00,2013-02-19 22:14:00,
2013-02-19 16:19:00,50.2,23.6,30.11,NW,308,13.0,19.0,35,0.00,,SKC,0.40,VWS V13.00,2013-02-19 22:19:00,
2013-02-19 16:24:00,49.8,22.6,30.11,WNW,300,9.0,19.0,34,0.00,,SKC,0.40,VWS V13.00,2013-02-19 22:24:00,
2013-02-19 16:29:00,49.5,23.0,30.11,NW,325,10.0,19.0,35,0.00,,SKC,0.40,VWS V13.00,2013-02-19 22:29:00,
2013-02-19 16:34:00,49.4,22.9,30.12,NW,308,9.0,19.0,35,0.00,,SKC,0.40,VWS V13.00,2013-02-19 22:34:00,
2013-02-19 16:39:00,49.2,24.1,30.12,North,350,11.0,19.0,37,0.00,,SKC,0.40,VWS V13.00,2013-02-19 22:39:00,
2013-02-19 16:44:00,48.7,20.2,30.12,West,279,11.0,19.0,32,0.00,,SKC,0.40,VWS V13.00,2013-02-19 22:44:00,
2013-02-19 16:49:00,48.3,19.8,30.12,NW,321,7.0,19.0,32,0.00,,SKC,0.40,VWS V13.00,2013-02-19 22:49:00,
2013-02-19 16:54:00,47.9,20.2,30.12,NW,311,9.0,19.0,33,0.00,,SKC,0.40,VWS V13.00,2013-02-19 22:54:00,
2013-02-19 16:59:00,47.7,20.0,30.12,NNW,336,9.0,19.0,33,0.00,,SKC,0.40,VWS V13.00,2013-02-19 22:59:00,
2013-02-19 17:04:00,47.5,21.2,30.13,NNW,343,6.0,10.0,35,0.00,,SKC,0.40,VWS V13.00,2013-02-19 23:04:00,
2013-02-19 17:09:00,47.2,21.0,30.13,NW,321,13.0,16.0,35,0.00,,SKC,0.40,VWS V13.00,2013-02-19 23:09:00,
2013-02-19 17:14:00,46.9,22.0,30.13,NW,308,7.0,16.0,37,0.00,,SKC,0.40,VWS V13.00,2013-02-19 23:14:00,
2013-02-19 17:19:00,46.6,21.7,30.13,NW,323,7.0,16.0,37,0.00,,SKC,0.40,VWS V13.00,2013-02-19 23:19:00,
2013-02-19 17:24:00,46.3,21.5,30.14,NW,314,6.0,16.0,37,0.00,,SKC,0.40,VWS V13.00,2013-02-19 23:24:00,
2013-02-19 17:29:00,46.2,21.4,30.14,NW,315,11.0,16.0,37,0.00,,SKC,0.40,VWS V13.00,2013-02-19 23:29:00,
2013-02-19 17:34:00,46.0,21.8,30.14,NW,317,5.0,13.0,38,0.00,,SKC,0.40,VWS V13.00,2013-02-19 23:34:00,
2013-02-19 17:39:00,45.6,21.5,30.15,NNW,333,7.0,13.0,38,0.00,,SKC,0.40,VWS V13.00,2013-02-19 23:39:00,
2013-02-19 17:44:00,45.3,22.4,30.15,NW,312,5.0,13.0,40,0.00,,SKC,0.40,VWS V13.00,2013-02-19 23:44:00,
2013-02-19 17:49:00,44.9,22.1,30.15,NW,306,6.0,13.0,40,0.00,,SKC,0.40,VWS V13.00,2013-02-19 23:49:00,
2013-02-19 17:54:00,44.7,22.5,30.15,NNW,327,5.0,13.0,41,0.00,,SKC,0.40,VWS V13.00,2013-02-19 23:54:00,
2013-02-19 17:59:00,44.7,22.5,30.15,NW,304,5.0,13.0,41,0.00,,SKC,0.40,VWS V13.00,2013-02-19 23:59:00,
2013-02-19 18:04:00,44.5,22.3,30.14,NW,321,5.0,9.0,41,0.00,,SKC,0.40,VWS V13.00,2013-02-20 00:04:00,
2013-02-19 18:09:00,44.2,22.6,30.15,NW,305,7.0,10.0,42,0.00,,SKC,0.40,VWS V13.00,2013-02-20 00:09:00,
2013-02-19 18:14:00,44.2,22.6,30.15,WNW,301,6.0,11.0,42,0.00,,SKC,0.40,VWS V13.00,2013-02-20 00:14:00,
2013-02-19 18:19:00,44.0,23.0,30.15,WNW,298,7.0,13.0,43,0.00,,SKC,0.40,VWS V13.00,2013-02-20 00:19:00,
2013-02-19 18:24:00,43.7,23.2,30.15,NW,314,6.0,13.0,44,0.00,,SKC,0.40,VWS V13.00,2013-02-20 00:24:00,
2013-02-19 18:29:00,43.5,23.6,30.15,WNW,297,6.0,13.0,45,0.00,,SKC,0.40,VWS V13.00,2013-02-20 00:29:00,
2013-02-19 18:34:00,43.4,23.5,30.15,NW,311,8.0,13.0,45,0.00,,SKC,0.40,VWS V13.00,2013-02-20 00:34:00,
2013-02-19 18:39:00,43.2,23.8,30.15,NW,314,8.0,13.0,46,0.00,,SKC,0.40,VWS V13.00,2013-02-20 00:39:00,
2013-02-19 18:44:00,42.9,24.1,30.15,NW,310,8.0,13.0,47,0.00,,SKC,0.40,VWS V13.00,2013-02-20 00:44:00,
2013-02-19 18:49:00,42.6,24.3,30.15,WNW,301,7.0,13.0,48,0.00,,SKC,0.40,VWS V13.00,2013-02-20 00:49:00,
2013-02-19 18:53:00,42.7,23.9,30.15,WNW,295,6.0,13.0,47,0.00,,SKC,0.40,VWS V13.00,2013-02-20 00:53:00,
2013-02-19 18:58:00,42.5,24.2,30.16,WNW,290,6.0,13.0,48,0.00,,SKC,0.40,VWS V13.00,2013-02-20 00:58:00,
2013-02-19 19:03:00,42.5,23.7,30.16,WNW,293,4.0,6.0,47,0.00,,SKC,0.40,VWS V13.00,2013-02-20 01:03:00,
2013-02-19 19:08:00,42.3,24.0,30.16,WNW,294,6.0,7.0,48,0.00,,SKC,0.40,VWS V13.00,2013-02-20 01:08:00,
2013-02-19 19:13:00,42.1,23.8,30.16,WNW,290,5.0,8.0,48,0.00,,SKC,0.40,VWS V13.00,2013-02-20 01:13:00,
2013-02-19 19:18:00,42.0,23.8,30.16,WNW,299,5.0,9.0,48,0.00,,SKC,0.40,VWS V13.00,2013-02-20 01:18:00,
2013-02-19 19:23:00,42.0,23.8,30.16,WNW,287,4.0,9.0,48,0.00,,SKC,0.40,VWS V13.00,2013-02-20 01:23:00,
2013-02-19 19:28:00,41.9,23.2,30.16,West,281,5.0,9.0,47,0.00,,SKC,0.40,VWS V13.00,2013-02-20 01:28:00,
2013-02-19 19:33:00,41.7,23.5,30.16,WNW,290,5.0,8.0,48,0.00,,SKC,0.40,VWS V13.00,2013-02-20 01:33:00,
2013-02-19 19:38:00,41.8,23.1,30.16,WNW,296,3.0,8.0,47,0.00,,SKC,0.40,VWS V13.00,2013-02-20 01:38:00,
2013-02-19 19:43:00,41.7,23.5,30.16,WNW,289,6.0,9.0,48,0.00,,SKC,0.40,VWS V13.00,2013-02-20 01:43:00,
2013-02-19 19:48:00,41.5,23.3,30.16,WNW,301,5.0,9.0,48,0.00,,SKC,0.40,VWS V13.00,2013-02-20 01:48:00,
2013-02-19 19:53:00,41.3,23.1,30.16,WNW,292,5.0,9.0,48,0.00,,SKC,0.40,VWS V13.00,2013-02-20 01:53:00,
2013-02-19 19:58:00,41.0,23.3,30.16,WNW,301,3.0,9.0,49,0.00,,SKC,0.40,VWS V13.00,2013-02-20 01:58:00,
2013-02-19 20:03:00,40.8,23.1,30.16,WNW,302,2.0,5.0,49,0.00,,SKC,0.40,VWS V13.00,2013-02-20 02:03:00,
2013-02-19 20:08:00,40.6,23.4,30.16,WNW,299,2.0,5.0,50,0.00,,SKC,0.40,VWS V13.00,2013-02-20 02:08:00,
2013-02-19 20:13:00,40.3,23.6,30.16,WNW,298,5.0,6.0,51,0.00,,SKC,0.40,VWS V13.00,2013-02-20 02:13:00,
2013-02-19 20:18:00,40.0,23.8,30.17,NW,304,5.0,6.0,52,0.00,,SKC,0.40,VWS V13.00,2013-02-20 02:18:00,
2013-02-19 20:23:00,39.7,23.5,30.17,WNW,294,4.0,7.0,52,0.00,,SKC,0.40,VWS V13.00,2013-02-20 02:23:00,
2013-02-19 20:28:00,39.5,23.8,30.17,NW,315,5.0,7.0,53,0.00,,SKC,0.40,VWS V13.00,2013-02-20 02:28:00,
2013-02-19 20:33:00,39.3,23.6,30.17,NW,307,5.0,6.0,53,0.00,,SKC,0.40,VWS V13.00,2013-02-20 02:33:00,
2013-02-19 20:38:00,39.5,23.4,30.18,NW,316,9.0,9.0,52,0.00,,SKC,0.40,VWS V13.00,2013-02-20 02:38:00,
2013-02-19 20:43:00,39.7,23.5,30.18,WNW,300,6.0,9.0,52,0.00,,SKC,0.40,VWS V13.00,2013-02-20 02:43:00,
2013-02-19 20:48:00,39.7,23.5,30.19,WNW,292,4.0,9.0,52,0.00,,SKC,0.40,VWS V13.00,2013-02-20 02:48:00,
2013-02-19 20:53:00,39.6,23.9,30.19,WNW,292,5.0,9.0,53,0.00,,SKC,0.40,VWS V13.00,2013-02-20 02:53:00,
2013-02-19 20:58:00,39.6,23.0,30.19,NW,317,4.0,12.0,51,0.00,,SKC,0.40,VWS V13.00,2013-02-20 02:58:00,
2013-02-19 21:03:00,39.9,22.8,30.20,WNW,303,5.0,7.0,50,0.00,,SKC,0.40,VWS V13.00,2013-02-20 03:03:00,
2013-02-19 21:08:00,40.0,22.9,30.20,NW,321,6.0,11.0,50,0.00,,SKC,0.40,VWS V13.00,2013-02-20 03:08:00,
2013-02-19 21:13:00,40.2,22.1,30.20,NNW,327,5.0,11.0,48,0.00,,SKC,0.40,VWS V13.00,2013-02-20 03:13:00,
2013-02-19 21:18:00,40.2,21.1,30.20,NW,308,7.0,12.0,46,0.00,,SKC,0.40,VWS V13.00,2013-02-20 03:18:00,
2013-02-19 21:23:00,40.3,21.2,30.21,WNW,302,5.0,12.0,46,0.00,,SKC,0.40,VWS V13.00,2013-02-20 03:23:00,
2013-02-19 21:28:00,40.3,21.2,30.21,NW,305,4.0,12.0,46,0.00,,SKC,0.40,VWS V13.00,2013-02-20 03:28:00,
2013-02-19 21:33:00,40.1,21.0,30.22,NW,323,6.0,9.0,46,0.00,,SKC,0.40,VWS V13.00,2013-02-20 03:33:00,
2013-02-19 21:38:00,40.1,20.5,30.22,NW,304,7.0,11.0,45,0.00,,SKC,0.40,VWS V13.00,2013-02-20 03:38:00,
2013-02-19 21:43:00,40.0,21.4,30.22,WNW,288,7.0,11.0,47,0.00,,SKC,0.40,VWS V13.00,2013-02-20 03:43:00,
2013-02-19 21:48:00,39.8,21.7,30.21,NW,317,5.0,11.0,48,0.00,,SKC,0.40,VWS V13.00,2013-02-20 03:48:00,
2013-02-19 21:53:00,39.5,21.5,30.21,NNW,335,6.0,11.0,48,0.00,,SKC,0.40,VWS V13.00,2013-02-20 03:53:00,
2013-02-19 21:58:00,39.6,21.5,30.21,NNW,344,7.0,12.0,48,0.00,,SKC,0.40,VWS V13.00,2013-02-20 03:58:00,
2013-02-19 22:03:00,39.6,21.5,30.20,North,355,7.0,7.0,48,0.00,,SKC,0.40,VWS V13.00,2013-02-20 04:03:00,
2013-02-19 22:08:00,39.3,21.8,30.20,NNW,335,8.0,9.0,49,0.00,,SKC,0.40,VWS V13.00,2013-02-20 04:08:00,
2013-02-19 22:13:00,39.2,21.7,30.20,NNW,331,4.0,11.0,49,0.00,,SKC,0.40,VWS V13.00,2013-02-20 04:13:00,
2013-02-19 22:18:00,38.9,21.9,30.20,North,355,5.0,11.0,50,0.00,,SKC,0.40,VWS V13.00,2013-02-20 04:18:00,
2013-02-19 22:23:00,38.8,21.8,30.20,NNW,338,5.0,12.0,50,0.00,,SKC,0.40,VWS V13.00,2013-02-20 04:23:00,
2013-02-19 22:28:00,38.6,22.0,30.20,NNE,16,5.0,12.0,51,0.00,,SKC,0.40,VWS V13.00,2013-02-20 04:28:00,
2013-02-19 22:33:00,38.3,22.2,30.21,NNW,348,6.0,8.0,52,0.00,,SKC,0.40,VWS V13.00,2013-02-20 04:33:00,
2013-02-19 22:38:00,38.2,22.1,30.21,North,355,5.0,9.0,52,0.00,,SKC,0.40,VWS V13.00,2013-02-20 04:38:00,
2013-02-19 22:43:00,38.2,22.6,30.21,NNW,338,4.0,10.0,53,0.00,,SKC,0.40,VWS V13.00,2013-02-20 04:43:00,
2013-02-19 22:48:00,38.1,22.5,30.21,NNW,345,6.0,10.0,53,0.00,,SKC,0.40,VWS V13.00,2013-02-20 04:48:00,
2013-02-19 22:53:00,38.1,22.5,30.22,NNW,329,4.0,10.0,53,0.00,,SKC,0.40,VWS V13.00,2013-02-20 04:53:00,
2013-02-19 22:58:00,38.1,22.9,30.22,North,360,7.0,10.0,54,0.00,,SKC,0.40,VWS V13.00,2013-02-20 04:58:00,
2013-02-19 23:00:00,38.1,22.9,30.22,NNW,334,5.0,10.0,54,0.00,,SKC,0.40,VWS V13.00,2013-02-20 05:00:00,
2013-02-19 23:05:00,37.9,23.2,30.22,NNW,335,8.0,10.0,55,0.00,,SKC,0.40,VWS V13.00,2013-02-20 05:05:00,
2013-02-19 23:10:00,37.7,23.0,30.22,NNW,340,2.0,10.0,55,0.00,,SKC,0.40,VWS V13.00,2013-02-20 05:10:00,
2013-02-19 23:15:00,37.5,23.2,30.22,NNW,337,4.0,10.0,56,0.00,,SKC,0.40,VWS V13.00,2013-02-20 05:15:00,
2013-02-19 23:20:00,37.2,23.4,30.22,NNW,346,4.0,10.0,57,0.00,,SKC,0.40,VWS V13.00,2013-02-20 05:20:00,
2013-02-19 23:25:00,37.1,22.9,30.22,North,351,1.0,10.0,56,0.00,,SKC,0.40,VWS V13.00,2013-02-20 05:25:00,
2013-02-19 23:30:00,36.8,23.0,30.22,NNW,348,2.0,10.0,57,0.00,,SKC,0.40,VWS V13.00,2013-02-20 05:30:00,
2013-02-19 23:35:00,36.5,23.1,30.22,North,350,2.0,4.0,58,0.00,,SKC,0.40,VWS V13.00,2013-02-20 05:35:00,
2013-02-19 23:40:00,36.1,22.8,30.22,North,350,0.0,4.0,58,0.00,,SKC,0.40,VWS V13.00,2013-02-20 05:40:00,
2013-02-19 23:45:00,35.9,23.0,30.22,North,350,2.0,4.0,59,0.00,,SKC,0.40,VWS V13.00,2013-02-20 05:45:00,
2013-02-19 23:50:00,35.7,22.8,30.21,North,349,1.0,4.0,59,0.00,,SKC,0.40,VWS V13.00,2013-02-20 05:50:00,
2013-02-19 23:55:00,35.5,23.0,30.22,North,349,1.0,4.0,60,0.00,,SKC,0.40,VWS V13.00,2013-02-20 05:55:00,